sensor_id;sensor_type;location;lat;lon;timestamp;P1;durP1;ratioP1;P2;durP2;ratioP2
47657;SDS011;33958;48.404;10.598;2022-08-18T00:01:47;0.55;;;0.47;;
47657;SDS011;33958;48.404;10.598;2022-08-18T00:04:27;0.20;;;0.17;;
47657;SDS011;33958;48.404;10.598;2022-08-18T00:07:01;0.73;;;0.55;;
47657;SDS011;33958;48.404;10.598;2022-08-18T00:09:27;0.43;;;0.35;;
47657;SDS011;33958;48.404;10.598;2022-08-18T00:14:25;0.20;;;0.20;;
47657;SDS011;33958;48.404;10.598;2022-08-18T00:16:53;0.30;;;0.30;;
47657;SDS011;33958;48.404;10.598;2022-08-18T00:19:20;0.10;;;0.10;;
47657;SDS011;33958;48.404;10.598;2022-08-18T00:22:08;0.30;;;0.30;;
47657;SDS011;33958;48.404;10.598;2022-08-18T00:24:40;0.35;;;0.35;;
47657;SDS011;33958;48.404;10.598;2022-08-18T00:27:14;0.98;;;0.63;;
47657;SDS011;33958;48.404;10.598;2022-08-18T00:30:04;0.60;;;0.55;;
47657;SDS011;33958;48.404;10.598;2022-08-18T00:32:34;0.50;;;0.40;;
47657;SDS011;33958;48.404;10.598;2022-08-18T00:35:06;2.03;;;0.43;;
47657;SDS011;33958;48.404;10.598;2022-08-18T00:37:40;0.73;;;0.68;;
47657;SDS011;33958;48.404;10.598;2022-08-18T00:40:08;0.68;;;0.50;;
47657;SDS011;33958;48.404;10.598;2022-08-18T00:42:39;1.13;;;0.50;;
47657;SDS011;33958;48.404;10.598;2022-08-18T00:45:09;0.40;;;0.40;;
47657;SDS011;33958;48.404;10.598;2022-08-18T00:47:44;1.13;;;0.50;;
47657;SDS011;33958;48.404;10.598;2022-08-18T00:50:14;0.70;;;0.40;;
47657;SDS011;33958;48.404;10.598;2022-08-18T00:52:45;0.20;;;0.20;;
47657;SDS011;33958;48.404;10.598;2022-08-18T00:55:20;1.15;;;0.68;;
47657;SDS011;33958;48.404;10.598;2022-08-18T00:57:50;0.40;;;0.40;;
47657;SDS011;33958;48.404;10.598;2022-08-18T01:02:49;1.17;;;0.70;;
47657;SDS011;33958;48.404;10.598;2022-08-18T01:05:26;0.10;;;0.10;;
47657;SDS011;33958;48.404;10.598;2022-08-18T01:07:59;0.47;;;0.30;;
47657;SDS011;33958;48.404;10.598;2022-08-18T01:10:26;0.77;;;0.77;;
47657;SDS011;33958;48.404;10.598;2022-08-18T01:12:54;0.70;;;0.70;;
47657;SDS011;33958;48.404;10.598;2022-08-18T01:15:23;0.38;;;0.35;;
47657;SDS011;33958;48.404;10.598;2022-08-18T01:17:59;0.20;;;0.20;;
47657;SDS011;33958;48.404;10.598;2022-08-18T01:24:06;0.77;;;0.40;;
47657;SDS011;33958;48.404;10.598;2022-08-18T01:26:36;0.63;;;0.63;;
47657;SDS011;33958;48.404;10.598;2022-08-18T01:29:10;0.40;;;0.40;;
47657;SDS011;33958;48.404;10.598;2022-08-18T01:31:46;0.85;;;0.47;;
47657;SDS011;33958;48.404;10.598;2022-08-18T01:34:22;0.20;;;0.20;;
47657;SDS011;33958;48.404;10.598;2022-08-18T01:36:50;1.25;;;0.68;;
47657;SDS011;33958;48.404;10.598;2022-08-18T01:39:19;0.35;;;0.35;;
47657;SDS011;33958;48.404;10.598;2022-08-18T01:42:07;0.65;;;0.45;;
47657;SDS011;33958;48.404;10.598;2022-08-18T01:44:34;0.00;;;0.00;;
47657;SDS011;33958;48.404;10.598;2022-08-18T01:47:02;0.30;;;0.30;;
47657;SDS011;33958;48.404;10.598;2022-08-18T01:49:29;0.20;;;0.20;;
47657;SDS011;33958;48.404;10.598;2022-08-18T01:51:56;0.50;;;0.45;;
47657;SDS011;33958;48.404;10.598;2022-08-18T01:54:23;0.30;;;0.28;;
47657;SDS011;33958;48.404;10.598;2022-08-18T01:56:54;1.10;;;0.50;;
47657;SDS011;33958;48.404;10.598;2022-08-18T01:59:22;0.15;;;0.15;;
47657;SDS011;33958;48.404;10.598;2022-08-18T02:01:49;1.70;;;0.50;;
47657;SDS011;33958;48.404;10.598;2022-08-18T02:04:22;0.50;;;0.25;;
47657;SDS011;33958;48.404;10.598;2022-08-18T02:07:03;0.28;;;0.28;;
47657;SDS011;33958;48.404;10.598;2022-08-18T02:09:33;0.45;;;0.35;;
47657;SDS011;33958;48.404;10.598;2022-08-18T02:12:02;0.38;;;0.28;;
47657;SDS011;33958;48.404;10.598;2022-08-18T02:14:31;0.93;;;0.75;;
47657;SDS011;33958;48.404;10.598;2022-08-18T02:16:59;2.28;;;0.88;;
47657;SDS011;33958;48.404;10.598;2022-08-18T02:19:41;0.80;;;0.63;;
47657;SDS011;33958;48.404;10.598;2022-08-18T02:22:10;2.22;;;0.80;;
47657;SDS011;33958;48.404;10.598;2022-08-18T02:24:40;0.60;;;0.60;;
47657;SDS011;33958;48.404;10.598;2022-08-18T02:27:08;0.55;;;0.55;;
47657;SDS011;33958;48.404;10.598;2022-08-18T02:29:36;0.80;;;0.70;;
47657;SDS011;33958;48.404;10.598;2022-08-18T02:32:03;3.25;;;1.08;;
47657;SDS011;33958;48.404;10.598;2022-08-18T02:34:31;0.80;;;0.55;;
47657;SDS011;33958;48.404;10.598;2022-08-18T02:36:59;0.52;;;0.40;;
47657;SDS011;33958;48.404;10.598;2022-08-18T02:39:26;0.95;;;0.75;;
47657;SDS011;33958;48.404;10.598;2022-08-18T02:41:53;1.67;;;0.60;;
47657;SDS011;33958;48.404;10.598;2022-08-18T02:44:20;0.05;;;0.05;;
47657;SDS011;33958;48.404;10.598;2022-08-18T02:46:50;0.00;;;0.00;;
47657;SDS011;33958;48.404;10.598;2022-08-18T02:49:18;0.80;;;0.52;;
47657;SDS011;33958;48.404;10.598;2022-08-18T02:51:45;1.08;;;0.85;;
47657;SDS011;33958;48.404;10.598;2022-08-18T02:54:12;1.08;;;0.38;;
47657;SDS011;33958;48.404;10.598;2022-08-18T02:56:39;0.73;;;0.40;;
47657;SDS011;33958;48.404;10.598;2022-08-18T02:59:10;0.15;;;0.15;;
47657;SDS011;33958;48.404;10.598;2022-08-18T03:01:41;0.70;;;0.35;;
47657;SDS011;33958;48.404;10.598;2022-08-18T03:04:11;0.10;;;0.10;;
47657;SDS011;33958;48.404;10.598;2022-08-18T03:06:40;0.00;;;0.00;;
47657;SDS011;33958;48.404;10.598;2022-08-18T03:09:10;0.50;;;0.47;;
47657;SDS011;33958;48.404;10.598;2022-08-18T03:11:39;0.17;;;0.17;;
47657;SDS011;33958;48.404;10.598;2022-08-18T03:14:08;0.32;;;0.30;;
47657;SDS011;33958;48.404;10.598;2022-08-18T03:16:40;1.85;;;0.63;;
47657;SDS011;33958;48.404;10.598;2022-08-18T03:19:20;0.17;;;0.17;;
47657;SDS011;33958;48.404;10.598;2022-08-18T03:21:49;0.35;;;0.32;;
47657;SDS011;33958;48.404;10.598;2022-08-18T03:24:16;0.47;;;0.32;;
47657;SDS011;33958;48.404;10.598;2022-08-18T03:26:49;0.20;;;0.20;;
47657;SDS011;33958;48.404;10.598;2022-08-18T03:29:17;0.57;;;0.50;;
47657;SDS011;33958;48.404;10.598;2022-08-18T03:31:44;0.40;;;0.32;;
47657;SDS011;33958;48.404;10.598;2022-08-18T03:34:14;0.60;;;0.52;;
47657;SDS011;33958;48.404;10.598;2022-08-18T03:36:45;1.55;;;0.55;;
47657;SDS011;33958;48.404;10.598;2022-08-18T03:39:14;2.03;;;0.30;;
47657;SDS011;33958;48.404;10.598;2022-08-18T03:41:42;0.47;;;0.30;;
47657;SDS011;33958;48.404;10.598;2022-08-18T03:44:27;2.60;;;0.40;;
47657;SDS011;33958;48.404;10.598;2022-08-18T03:46:57;0.10;;;0.10;;
47657;SDS011;33958;48.404;10.598;2022-08-18T03:49:25;0.45;;;0.45;;
47657;SDS011;33958;48.404;10.598;2022-08-18T03:51:52;0.82;;;0.28;;
47657;SDS011;33958;48.404;10.598;2022-08-18T03:54:19;0.10;;;0.10;;
47657;SDS011;33958;48.404;10.598;2022-08-18T03:56:46;0.00;;;0.00;;
47657;SDS011;33958;48.404;10.598;2022-08-18T03:59:15;0.30;;;0.20;;
47657;SDS011;33958;48.404;10.598;2022-08-18T04:01:45;0.50;;;0.47;;
47657;SDS011;33958;48.404;10.598;2022-08-18T04:04:15;0.15;;;0.15;;
47657;SDS011;33958;48.404;10.598;2022-08-18T04:06:47;0.35;;;0.30;;
47657;SDS011;33958;48.404;10.598;2022-08-18T04:09:16;0.10;;;0.10;;
47657;SDS011;33958;48.404;10.598;2022-08-18T04:11:43;0.30;;;0.28;;
47657;SDS011;33958;48.404;10.598;2022-08-18T04:14:12;0.00;;;0.00;;
47657;SDS011;33958;48.404;10.598;2022-08-18T04:16:41;0.10;;;0.10;;
47657;SDS011;33958;48.404;10.598;2022-08-18T04:19:08;0.03;;;0.03;;
47657;SDS011;33958;48.404;10.598;2022-08-18T04:21:39;0.45;;;0.45;;
47657;SDS011;33958;48.404;10.598;2022-08-18T04:24:07;0.10;;;0.10;;
47657;SDS011;33958;48.404;10.598;2022-08-18T04:26:37;1.15;;;0.38;;
47657;SDS011;33958;48.404;10.598;2022-08-18T04:29:11;0.00;;;0.00;;
47657;SDS011;33958;48.404;10.598;2022-08-18T04:31:39;0.00;;;0.00;;
47657;SDS011;33958;48.404;10.598;2022-08-18T04:34:06;0.05;;;0.05;;
47657;SDS011;33958;48.404;10.598;2022-08-18T04:36:33;0.20;;;0.20;;
47657;SDS011;33958;48.404;10.598;2022-08-18T04:39:03;0.10;;;0.10;;
47657;SDS011;33958;48.404;10.598;2022-08-18T04:41:33;0.20;;;0.20;;
47657;SDS011;33958;48.404;10.598;2022-08-18T04:44:01;0.93;;;0.82;;
47657;SDS011;33958;48.404;10.598;2022-08-18T04:46:34;0.47;;;0.32;;
47657;SDS011;33958;48.404;10.598;2022-08-18T04:49:05;1.25;;;0.50;;
47657;SDS011;33958;48.404;10.598;2022-08-18T04:51:35;0.40;;;0.22;;
47657;SDS011;33958;48.404;10.598;2022-08-18T04:54:24;0.17;;;0.17;;
47657;SDS011;33958;48.404;10.598;2022-08-18T04:56:51;0.40;;;0.32;;
47657;SDS011;33958;48.404;10.598;2022-08-18T04:59:18;0.10;;;0.10;;
47657;SDS011;33958;48.404;10.598;2022-08-18T05:01:45;0.40;;;0.10;;
47657;SDS011;33958;48.404;10.598;2022-08-18T05:04:14;4.38;;;0.25;;
47657;SDS011;33958;48.404;10.598;2022-08-18T05:06:43;0.00;;;0.00;;
47657;SDS011;33958;48.404;10.598;2022-08-18T05:09:11;0.25;;;0.25;;
47657;SDS011;33958;48.404;10.598;2022-08-18T05:11:48;0.60;;;0.52;;
47657;SDS011;33958;48.404;10.598;2022-08-18T05:14:16;0.55;;;0.20;;
47657;SDS011;33958;48.404;10.598;2022-08-18T05:16:43;0.00;;;0.00;;
47657;SDS011;33958;48.404;10.598;2022-08-18T05:19:16;0.00;;;0.00;;
47657;SDS011;33958;48.404;10.598;2022-08-18T05:21:49;0.13;;;0.13;;
47657;SDS011;33958;48.404;10.598;2022-08-18T05:24:18;0.10;;;0.10;;
47657;SDS011;33958;48.404;10.598;2022-08-18T05:26:46;0.30;;;0.28;;
47657;SDS011;33958;48.404;10.598;2022-08-18T05:29:14;0.20;;;0.20;;
47657;SDS011;33958;48.404;10.598;2022-08-18T05:31:44;0.20;;;0.20;;
47657;SDS011;33958;48.404;10.598;2022-08-18T05:34:11;0.43;;;0.40;;
47657;SDS011;33958;48.404;10.598;2022-08-18T05:41:45;0.85;;;0.50;;
47657;SDS011;33958;48.404;10.598;2022-08-18T05:44:30;1.00;;;0.70;;
47657;SDS011;33958;48.404;10.598;2022-08-18T05:47:13;0.43;;;0.40;;
47657;SDS011;33958;48.404;10.598;2022-08-18T05:49:42;0.57;;;0.55;;
47657;SDS011;33958;48.404;10.598;2022-08-18T05:52:16;1.02;;;0.40;;
47657;SDS011;33958;48.404;10.598;2022-08-18T05:55:07;2.08;;;1.05;;
47657;SDS011;33958;48.404;10.598;2022-08-18T05:57:58;0.47;;;0.47;;
47657;SDS011;33958;48.404;10.598;2022-08-18T06:00:30;0.10;;;0.10;;
47657;SDS011;33958;48.404;10.598;2022-08-18T06:03:03;1.30;;;0.68;;
47657;SDS011;33958;48.404;10.598;2022-08-18T06:06:01;1.35;;;0.85;;
47657;SDS011;33958;48.404;10.598;2022-08-18T06:08:46;0.35;;;0.35;;
47657;SDS011;33958;48.404;10.598;2022-08-18T06:11:21;0.50;;;0.50;;
47657;SDS011;33958;48.404;10.598;2022-08-18T06:13:48;0.35;;;0.35;;
47657;SDS011;33958;48.404;10.598;2022-08-18T06:19:15;1.73;;;0.75;;
47657;SDS011;33958;48.404;10.598;2022-08-18T06:24:35;0.45;;;0.45;;
47657;SDS011;33958;48.404;10.598;2022-08-18T06:35:32;0.17;;;0.17;;
47657;SDS011;33958;48.404;10.598;2022-08-18T06:38:28;1.05;;;0.50;;
47657;SDS011;33958;48.404;10.598;2022-08-18T06:44:13;0.40;;;0.40;;
47657;SDS011;33958;48.404;10.598;2022-08-18T06:47:04;0.20;;;0.20;;
47657;SDS011;33958;48.404;10.598;2022-08-18T06:54:49;0.70;;;0.63;;
47657;SDS011;33958;48.404;10.598;2022-08-18T06:57:24;1.05;;;0.52;;
47657;SDS011;33958;48.404;10.598;2022-08-18T06:59:55;0.22;;;0.20;;
47657;SDS011;33958;48.404;10.598;2022-08-18T07:02:30;0.40;;;0.35;;
47657;SDS011;33958;48.404;10.598;2022-08-18T07:05:21;0.85;;;0.47;;
47657;SDS011;33958;48.404;10.598;2022-08-18T07:08:03;0.45;;;0.45;;
47657;SDS011;33958;48.404;10.598;2022-08-18T07:10:47;0.10;;;0.10;;
47657;SDS011;33958;48.404;10.598;2022-08-18T07:13:18;0.10;;;0.10;;
47657;SDS011;33958;48.404;10.598;2022-08-18T07:15:48;0.60;;;0.60;;
47657;SDS011;33958;48.404;10.598;2022-08-18T07:18:20;0.20;;;0.20;;
47657;SDS011;33958;48.404;10.598;2022-08-18T07:20:51;0.40;;;0.40;;
47657;SDS011;33958;48.404;10.598;2022-08-18T07:23:37;0.10;;;0.10;;
47657;SDS011;33958;48.404;10.598;2022-08-18T07:26:10;0.10;;;0.10;;
47657;SDS011;33958;48.404;10.598;2022-08-18T07:31:26;0.55;;;0.52;;
47657;SDS011;33958;48.404;10.598;2022-08-18T07:37:38;0.32;;;0.32;;
47657;SDS011;33958;48.404;10.598;2022-08-18T07:39:55;0.80;;;0.32;;
47657;SDS011;33958;48.404;10.598;2022-08-18T07:42:34;0.10;;;0.10;;
47657;SDS011;33958;48.404;10.598;2022-08-18T07:51:00;0.10;;;0.10;;
47657;SDS011;33958;48.404;10.598;2022-08-18T07:56:34;0.40;;;0.32;;
47657;SDS011;33958;48.404;10.598;2022-08-18T07:59:28;0.98;;;0.28;;
47657;SDS011;33958;48.404;10.598;2022-08-18T08:07:55;0.20;;;0.20;;
47657;SDS011;33958;48.404;10.598;2022-08-18T08:18:40;0.85;;;0.55;;
47657;SDS011;33958;48.404;10.598;2022-08-18T08:21:19;1.95;;;0.60;;
47657;SDS011;33958;48.404;10.598;2022-08-18T08:24:02;0.22;;;0.22;;
47657;SDS011;33958;48.404;10.598;2022-08-18T08:26:43;0.40;;;0.40;;
47657;SDS011;33958;48.404;10.598;2022-08-18T08:32:14;0.30;;;0.30;;
47657;SDS011;33958;48.404;10.598;2022-08-18T08:34:50;0.32;;;0.32;;
47657;SDS011;33958;48.404;10.598;2022-08-18T08:37:47;0.40;;;0.40;;
47657;SDS011;33958;48.404;10.598;2022-08-18T08:40:26;0.63;;;0.50;;
47657;SDS011;33958;48.404;10.598;2022-08-18T08:43:05;1.63;;;0.60;;
47657;SDS011;33958;48.404;10.598;2022-08-18T08:45:38;1.05;;;0.65;;
47657;SDS011;33958;48.404;10.598;2022-08-18T08:50:52;0.10;;;0.10;;
47657;SDS011;33958;48.404;10.598;2022-08-18T08:53:24;0.70;;;0.52;;
47657;SDS011;33958;48.404;10.598;2022-08-18T08:55:58;0.47;;;0.47;;
47657;SDS011;33958;48.404;10.598;2022-08-18T08:58:30;0.60;;;0.55;;
47657;SDS011;33958;48.404;10.598;2022-08-18T09:01:06;1.05;;;0.80;;
47657;SDS011;33958;48.404;10.598;2022-08-18T09:06:57;0.20;;;0.20;;
47657;SDS011;33958;48.404;10.598;2022-08-18T09:09:41;0.32;;;0.30;;
47657;SDS011;33958;48.404;10.598;2022-08-18T09:15:15;0.52;;;0.47;;
47657;SDS011;33958;48.404;10.598;2022-08-18T09:18:33;0.90;;;0.65;;
47657;SDS011;33958;48.404;10.598;2022-08-18T09:21:11;1.13;;;0.73;;
47657;SDS011;33958;48.404;10.598;2022-08-18T09:23:53;0.35;;;0.35;;
47657;SDS011;33958;48.404;10.598;2022-08-18T09:29:21;1.00;;;0.65;;
47657;SDS011;33958;48.404;10.598;2022-08-18T09:35:06;0.30;;;0.30;;
47657;SDS011;33958;48.404;10.598;2022-08-18T09:38:13;2.00;;;1.15;;
47657;SDS011;33958;48.404;10.598;2022-08-18T09:41:08;0.40;;;0.40;;
47657;SDS011;33958;48.404;10.598;2022-08-18T09:44:07;0.38;;;0.38;;
47657;SDS011;33958;48.404;10.598;2022-08-18T09:57:30;0.50;;;0.50;;
47657;SDS011;33958;48.404;10.598;2022-08-18T10:07:39;11.50;;;7.35;;
47657;SDS011;33958;48.404;10.598;2022-08-18T10:13:22;9.27;;;6.47;;
47657;SDS011;33958;48.404;10.598;2022-08-18T10:18:52;10.65;;;7.43;;
47657;SDS011;33958;48.404;10.598;2022-08-18T10:21:27;15.23;;;7.38;;
47657;SDS011;33958;48.404;10.598;2022-08-18T10:24:19;10.82;;;7.43;;
47657;SDS011;33958;48.404;10.598;2022-08-18T10:27:04;12.45;;;8.23;;
47657;SDS011;33958;48.404;10.598;2022-08-18T10:29:54;9.05;;;6.95;;
47657;SDS011;33958;48.404;10.598;2022-08-18T10:32:33;11.05;;;8.25;;
47657;SDS011;33958;48.404;10.598;2022-08-18T10:40:41;10.38;;;6.95;;
47657;SDS011;33958;48.404;10.598;2022-08-18T10:43:20;10.95;;;7.10;;
47657;SDS011;33958;48.404;10.598;2022-08-18T10:46:21;11.40;;;8.00;;
47657;SDS011;33958;48.404;10.598;2022-08-18T10:49:01;10.43;;;7.28;;
47657;SDS011;33958;48.404;10.598;2022-08-18T10:51:40;10.18;;;7.35;;
47657;SDS011;33958;48.404;10.598;2022-08-18T10:57:58;13.20;;;8.00;;
47657;SDS011;33958;48.404;10.598;2022-08-18T11:06:38;11.73;;;8.32;;
47657;SDS011;33958;48.404;10.598;2022-08-18T11:09:09;16.08;;;8.73;;
47657;SDS011;33958;48.404;10.598;2022-08-18T11:11:38;11.40;;;8.60;;
47657;SDS011;33958;48.404;10.598;2022-08-18T11:17:32;16.92;;;7.18;;
47657;SDS011;33958;48.404;10.598;2022-08-18T11:20:11;10.40;;;7.53;;
47657;SDS011;33958;48.404;10.598;2022-08-18T11:23:02;11.55;;;6.82;;
47657;SDS011;33958;48.404;10.598;2022-08-18T11:25:30;37.15;;;9.70;;
47657;SDS011;33958;48.404;10.598;2022-08-18T11:28:00;12.25;;;7.63;;
47657;SDS011;33958;48.404;10.598;2022-08-18T11:30:30;13.02;;;8.05;;
47657;SDS011;33958;48.404;10.598;2022-08-18T11:33:01;11.18;;;7.22;;
47657;SDS011;33958;48.404;10.598;2022-08-18T11:35:31;15.10;;;8.03;;
47657;SDS011;33958;48.404;10.598;2022-08-18T11:38:02;9.20;;;6.90;;
47657;SDS011;33958;48.404;10.598;2022-08-18T11:40:44;9.23;;;6.15;;
47657;SDS011;33958;48.404;10.598;2022-08-18T11:43:36;10.25;;;7.20;;
47657;SDS011;33958;48.404;10.598;2022-08-18T11:46:21;12.60;;;7.45;;
47657;SDS011;33958;48.404;10.598;2022-08-18T11:48:56;11.00;;;7.60;;
47657;SDS011;33958;48.404;10.598;2022-08-18T11:53:58;12.88;;;7.30;;
47657;SDS011;33958;48.404;10.598;2022-08-18T11:56:48;10.25;;;7.13;;
47657;SDS011;33958;48.404;10.598;2022-08-18T12:02:15;11.68;;;6.57;;
47657;SDS011;33958;48.404;10.598;2022-08-18T12:04:43;8.38;;;5.55;;
47657;SDS011;33958;48.404;10.598;2022-08-18T12:07:32;8.48;;;5.72;;
47657;SDS011;33958;48.404;10.598;2022-08-18T12:10:14;9.55;;;6.40;;
47657;SDS011;33958;48.404;10.598;2022-08-18T12:12:52;10.23;;;5.70;;
47657;SDS011;33958;48.404;10.598;2022-08-18T12:15:25;9.20;;;5.25;;
47657;SDS011;33958;48.404;10.598;2022-08-18T12:18:12;8.55;;;5.43;;
47657;SDS011;33958;48.404;10.598;2022-08-18T12:20:55;9.27;;;5.82;;
47657;SDS011;33958;48.404;10.598;2022-08-18T12:23:24;8.35;;;5.20;;
47657;SDS011;33958;48.404;10.598;2022-08-18T12:25:51;8.25;;;5.78;;
47657;SDS011;33958;48.404;10.598;2022-08-18T12:28:18;6.18;;;4.90;;
47657;SDS011;33958;48.404;10.598;2022-08-18T12:30:47;8.63;;;5.00;;
47657;SDS011;33958;48.404;10.598;2022-08-18T12:33:22;7.68;;;5.00;;
47657;SDS011;33958;48.404;10.598;2022-08-18T12:35:52;7.68;;;5.10;;
47657;SDS011;33958;48.404;10.598;2022-08-18T12:38:19;11.02;;;5.60;;
47657;SDS011;33958;48.404;10.598;2022-08-18T12:43:16;9.73;;;6.18;;
47657;SDS011;33958;48.404;10.598;2022-08-18T12:45:45;9.93;;;5.35;;
47657;SDS011;33958;48.404;10.598;2022-08-18T12:48:12;7.78;;;5.57;;
47657;SDS011;33958;48.404;10.598;2022-08-18T12:50:40;7.72;;;4.85;;
47657;SDS011;33958;48.404;10.598;2022-08-18T12:53:21;9.82;;;6.35;;
47657;SDS011;33958;48.404;10.598;2022-08-18T12:56:02;10.13;;;6.10;;
47657;SDS011;33958;48.404;10.598;2022-08-18T12:58:44;8.82;;;6.05;;
47657;SDS011;33958;48.404;10.598;2022-08-18T13:01:11;9.15;;;6.05;;
47657;SDS011;33958;48.404;10.598;2022-08-18T13:03:42;7.63;;;5.38;;
47657;SDS011;33958;48.404;10.598;2022-08-18T13:06:31;6.95;;;5.05;;
47657;SDS011;33958;48.404;10.598;2022-08-18T13:09:02;10.77;;;6.43;;
47657;SDS011;33958;48.404;10.598;2022-08-18T13:11:49;8.15;;;5.43;;
47657;SDS011;33958;48.404;10.598;2022-08-18T13:14:18;8.73;;;5.47;;
47657;SDS011;33958;48.404;10.598;2022-08-18T13:16:45;8.15;;;5.03;;
47657;SDS011;33958;48.404;10.598;2022-08-18T13:19:20;11.00;;;5.60;;
47657;SDS011;33958;48.404;10.598;2022-08-18T13:21:47;7.55;;;5.47;;
47657;SDS011;33958;48.404;10.598;2022-08-18T13:24:15;10.85;;;5.97;;
47657;SDS011;33958;48.404;10.598;2022-08-18T13:26:47;10.00;;;5.38;;
47657;SDS011;33958;48.404;10.598;2022-08-18T13:29:17;8.02;;;5.60;;
47657;SDS011;33958;48.404;10.598;2022-08-18T13:31:44;10.15;;;6.05;;
47657;SDS011;33958;48.404;10.598;2022-08-18T13:34:21;9.90;;;6.07;;
47657;SDS011;33958;48.404;10.598;2022-08-18T13:36:49;10.02;;;6.13;;
47657;SDS011;33958;48.404;10.598;2022-08-18T13:39:18;8.38;;;5.97;;
47657;SDS011;33958;48.404;10.598;2022-08-18T13:41:48;8.10;;;5.75;;
47657;SDS011;33958;48.404;10.598;2022-08-18T13:44:18;10.70;;;6.15;;
47657;SDS011;33958;48.404;10.598;2022-08-18T13:46:50;10.43;;;5.65;;
47657;SDS011;33958;48.404;10.598;2022-08-18T13:49:22;11.50;;;5.47;;
47657;SDS011;33958;48.404;10.598;2022-08-18T13:51:55;11.50;;;6.75;;
47657;SDS011;33958;48.404;10.598;2022-08-18T13:54:28;8.00;;;6.22;;
47657;SDS011;33958;48.404;10.598;2022-08-18T13:57:01;10.77;;;6.25;;
47657;SDS011;33958;48.404;10.598;2022-08-18T13:59:32;8.30;;;5.70;;
47657;SDS011;33958;48.404;10.598;2022-08-18T14:02:00;9.63;;;6.22;;
47657;SDS011;33958;48.404;10.598;2022-08-18T14:04:33;8.77;;;5.82;;
47657;SDS011;33958;48.404;10.598;2022-08-18T14:07:01;8.90;;;5.97;;
47657;SDS011;33958;48.404;10.598;2022-08-18T14:09:36;15.15;;;5.80;;
47657;SDS011;33958;48.404;10.598;2022-08-18T14:12:04;7.65;;;5.72;;
47657;SDS011;33958;48.404;10.598;2022-08-18T14:14:52;9.10;;;5.93;;
47657;SDS011;33958;48.404;10.598;2022-08-18T14:17:21;11.27;;;6.25;;
47657;SDS011;33958;48.404;10.598;2022-08-18T14:19:50;14.17;;;7.40;;
47657;SDS011;33958;48.404;10.598;2022-08-18T14:22:48;12.18;;;6.65;;
47657;SDS011;33958;48.404;10.598;2022-08-18T14:25:46;9.60;;;6.65;;
47657;SDS011;33958;48.404;10.598;2022-08-18T14:28:33;9.15;;;6.13;;
47657;SDS011;33958;48.404;10.598;2022-08-18T14:31:03;8.20;;;6.00;;
47657;SDS011;33958;48.404;10.598;2022-08-18T14:33:32;9.97;;;6.73;;
47657;SDS011;33958;48.404;10.598;2022-08-18T14:36:17;8.93;;;6.13;;
47657;SDS011;33958;48.404;10.598;2022-08-18T14:38:45;9.63;;;6.40;;
47657;SDS011;33958;48.404;10.598;2022-08-18T14:41:17;9.02;;;6.15;;
47657;SDS011;33958;48.404;10.598;2022-08-18T14:43:50;12.77;;;7.00;;
47657;SDS011;33958;48.404;10.598;2022-08-18T14:46:39;10.52;;;7.28;;
47657;SDS011;33958;48.404;10.598;2022-08-18T14:49:21;9.55;;;6.72;;
47657;SDS011;33958;48.404;10.598;2022-08-18T14:51:55;8.95;;;6.82;;
47657;SDS011;33958;48.404;10.598;2022-08-18T14:54:28;12.10;;;6.40;;
47657;SDS011;33958;48.404;10.598;2022-08-18T14:56:59;8.52;;;6.35;;
47657;SDS011;33958;48.404;10.598;2022-08-18T14:59:28;9.18;;;7.05;;
47657;SDS011;33958;48.404;10.598;2022-08-18T15:02:03;9.55;;;7.22;;
47657;SDS011;33958;48.404;10.598;2022-08-18T15:04:36;10.50;;;7.15;;
47657;SDS011;33958;48.404;10.598;2022-08-18T15:07:21;10.45;;;6.82;;
47657;SDS011;33958;48.404;10.598;2022-08-18T15:09:49;9.30;;;6.85;;
47657;SDS011;33958;48.404;10.598;2022-08-18T15:12:36;10.95;;;7.30;;
47657;SDS011;33958;48.404;10.598;2022-08-18T15:15:05;10.02;;;6.22;;
47657;SDS011;33958;48.404;10.598;2022-08-18T15:17:33;10.25;;;6.68;;
47657;SDS011;33958;48.404;10.598;2022-08-18T15:20:07;8.65;;;6.38;;
47657;SDS011;33958;48.404;10.598;2022-08-18T15:22:39;10.18;;;6.93;;
47657;SDS011;33958;48.404;10.598;2022-08-18T15:25:25;7.82;;;5.97;;
47657;SDS011;33958;48.404;10.598;2022-08-18T15:28:02;9.20;;;5.95;;
47657;SDS011;33958;48.404;10.598;2022-08-18T15:30:29;8.80;;;6.53;;
47657;SDS011;33958;48.404;10.598;2022-08-18T15:32:57;8.95;;;5.85;;
47657;SDS011;33958;48.404;10.598;2022-08-18T15:35:28;8.63;;;6.40;;
47657;SDS011;33958;48.404;10.598;2022-08-18T15:37:56;13.18;;;6.22;;
47657;SDS011;33958;48.404;10.598;2022-08-18T15:40:24;11.15;;;5.65;;
47657;SDS011;33958;48.404;10.598;2022-08-18T15:43:00;8.10;;;5.95;;
47657;SDS011;33958;48.404;10.598;2022-08-18T15:45:36;13.32;;;6.72;;
47657;SDS011;33958;48.404;10.598;2022-08-18T15:48:22;7.78;;;5.82;;
47657;SDS011;33958;48.404;10.598;2022-08-18T15:50:50;9.73;;;6.05;;
47657;SDS011;33958;48.404;10.598;2022-08-18T15:53:19;8.88;;;5.72;;
47657;SDS011;33958;48.404;10.598;2022-08-18T15:58:16;8.18;;;5.18;;
47657;SDS011;33958;48.404;10.598;2022-08-18T16:00:48;8.43;;;5.18;;
47657;SDS011;33958;48.404;10.598;2022-08-18T16:03:18;10.23;;;5.93;;
47657;SDS011;33958;48.404;10.598;2022-08-18T16:08:19;8.32;;;5.30;;
47657;SDS011;33958;48.404;10.598;2022-08-18T16:10:48;9.68;;;5.97;;
47657;SDS011;33958;48.404;10.598;2022-08-18T16:13:16;9.73;;;5.25;;
47657;SDS011;33958;48.404;10.598;2022-08-18T16:15:43;10.15;;;6.28;;
47657;SDS011;33958;48.404;10.598;2022-08-18T16:18:14;13.23;;;5.65;;
47657;SDS011;33958;48.404;10.598;2022-08-18T16:20:43;9.82;;;5.57;;
47657;SDS011;33958;48.404;10.598;2022-08-18T16:23:11;7.55;;;5.50;;
47657;SDS011;33958;48.404;10.598;2022-08-18T16:25:38;7.32;;;5.38;;
47657;SDS011;33958;48.404;10.598;2022-08-18T16:28:07;8.18;;;5.30;;
47657;SDS011;33958;48.404;10.598;2022-08-18T16:30:34;7.10;;;5.35;;
47657;SDS011;33958;48.404;10.598;2022-08-18T16:33:03;21.70;;;6.28;;
47657;SDS011;33958;48.404;10.598;2022-08-18T16:35:31;8.38;;;5.78;;
47657;SDS011;33958;48.404;10.598;2022-08-18T16:38:03;10.30;;;5.63;;
47657;SDS011;33958;48.404;10.598;2022-08-18T16:40:32;8.23;;;5.80;;
47657;SDS011;33958;48.404;10.598;2022-08-18T16:42:59;9.52;;;6.32;;
47657;SDS011;33958;48.404;10.598;2022-08-18T16:45:27;10.43;;;5.70;;
47657;SDS011;33958;48.404;10.598;2022-08-18T16:47:54;8.35;;;6.00;;
47657;SDS011;33958;48.404;10.598;2022-08-18T16:50:21;9.43;;;6.22;;
47657;SDS011;33958;48.404;10.598;2022-08-18T16:52:50;8.57;;;6.20;;
47657;SDS011;33958;48.404;10.598;2022-08-18T16:55:18;7.60;;;6.00;;
47657;SDS011;33958;48.404;10.598;2022-08-18T16:57:45;10.95;;;5.97;;
47657;SDS011;33958;48.404;10.598;2022-08-18T17:00:33;8.65;;;6.20;;
47657;SDS011;33958;48.404;10.598;2022-08-18T17:03:21;13.32;;;6.68;;
47657;SDS011;33958;48.404;10.598;2022-08-18T17:06:09;11.82;;;7.30;;
47657;SDS011;33958;48.404;10.598;2022-08-18T17:08:39;9.10;;;6.78;;
47657;SDS011;33958;48.404;10.598;2022-08-18T17:11:08;9.30;;;6.00;;
47657;SDS011;33958;48.404;10.598;2022-08-18T17:13:38;9.10;;;6.57;;
47657;SDS011;33958;48.404;10.598;2022-08-18T17:16:05;9.05;;;5.85;;
47657;SDS011;33958;48.404;10.598;2022-08-18T17:18:33;8.32;;;6.28;;
47657;SDS011;33958;48.404;10.598;2022-08-18T17:21:02;8.70;;;6.05;;
47657;SDS011;33958;48.404;10.598;2022-08-18T17:23:31;12.30;;;6.90;;
47657;SDS011;33958;48.404;10.598;2022-08-18T17:25:58;9.43;;;6.25;;
47657;SDS011;33958;48.404;10.598;2022-08-18T17:28:31;9.60;;;6.90;;